createdAt,value
2022-12-26T00:00:21.333Z,14.25
2022-12-26T00:02:47.964Z,14.25
2022-12-26T00:05:14.623Z,14.26
2022-12-26T00:07:41.111Z,14.26
2022-12-26T00:10:08.214Z,14.25
2022-12-26T00:12:35.359Z,14.25
2022-12-26T00:15:02.235Z,14.24
2022-12-26T00:17:28.741Z,14.24
2022-12-26T00:19:55.278Z,14.22
2022-12-26T00:22:21.859Z,14.21
2022-12-26T00:24:48.345Z,14.20
2022-12-26T00:27:14.889Z,14.18
2022-12-26T00:29:41.370Z,14.18
2022-12-26T00:32:07.884Z,14.16
2022-12-26T00:34:34.618Z,14.13
2022-12-26T00:37:01.091Z,14.11
2022-12-26T00:39:27.593Z,14.07
2022-12-26T00:41:54.137Z,14.07
2022-12-26T00:44:20.762Z,14.04
2022-12-26T00:46:47.421Z,14.03
2022-12-26T00:49:13.975Z,14.00
2022-12-26T00:51:40.530Z,13.98
2022-12-26T00:54:07.068Z,13.96
2022-12-26T00:56:33.623Z,13.95
2022-12-26T00:59:00.205Z,13.95
2022-12-26T01:01:30.825Z,13.95
2022-12-26T01:03:58.113Z,13.96
2022-12-26T01:06:24.647Z,13.96
2022-12-26T01:08:52.515Z,13.96
2022-12-26T01:11:39.314Z,13.95
2022-12-26T01:14:16.352Z,13.98
2022-12-26T01:16:45.007Z,13.99
2022-12-26T01:19:13.153Z,13.99
2022-12-26T01:21:39.928Z,13.99
2022-12-26T01:24:07.514Z,13.96
2022-12-26T01:26:34.517Z,13.95
2022-12-26T01:29:01.044Z,13.94
2022-12-26T01:31:27.875Z,13.95
2022-12-26T01:33:54.425Z,13.95
2022-12-26T01:36:20.917Z,13.95
2022-12-26T01:38:47.512Z,13.95
2022-12-26T01:41:17.661Z,13.95
2022-12-26T01:43:53.471Z,13.97
2022-12-26T01:46:24.670Z,13.99
2022-12-26T01:48:52.122Z,13.99
2022-12-26T01:51:21.001Z,13.98
2022-12-26T01:53:52.138Z,13.98
2022-12-26T01:56:23.824Z,13.98
2022-12-26T01:58:57.618Z,13.95
2022-12-26T02:01:28.663Z,13.96
2022-12-26T02:04:14.039Z,13.95
2022-12-26T02:06:41.428Z,13.95
2022-12-26T02:09:09.129Z,13.93
2022-12-26T02:11:40.934Z,13.92
2022-12-26T02:14:09.066Z,13.90
2022-12-26T02:16:37.657Z,13.88
2022-12-26T02:19:11.038Z,13.87
2022-12-26T02:21:58.834Z,13.85
2022-12-26T02:24:43.985Z,13.84
2022-12-26T02:27:26.687Z,13.84
2022-12-26T02:30:05.123Z,13.83
2022-12-26T02:32:48.528Z,13.83
2022-12-26T02:35:33.980Z,13.82
2022-12-26T02:38:13.359Z,13.83
2022-12-26T02:40:57.622Z,13.80
2022-12-26T02:43:42.577Z,13.80
2022-12-26T02:46:36.103Z,13.79
2022-12-26T02:49:13.267Z,13.77
2022-12-26T02:52:13.839Z,13.73
2022-12-26T02:55:23.264Z,13.71
2022-12-26T02:58:22.748Z,13.67
2022-12-26T03:01:13.420Z,13.65
2022-12-26T03:04:00.826Z,13.62
2022-12-26T03:06:49.673Z,13.60
2022-12-26T03:09:39.078Z,13.63
2022-12-26T03:12:39.506Z,13.63
2022-12-26T03:15:10.968Z,13.64
2022-12-26T03:17:48.835Z,13.65
2022-12-26T03:20:27.590Z,13.66
2022-12-26T03:23:00.203Z,13.66
2022-12-26T03:26:13.426Z,13.66
2022-12-26T03:28:41.397Z,13.68
2022-12-26T03:31:11.370Z,13.64
2022-12-26T03:34:00.130Z,13.65
2022-12-26T03:36:57.191Z,13.65
2022-12-26T03:39:54.506Z,13.62
2022-12-26T03:43:08.734Z,13.65
2022-12-26T03:46:08.982Z,13.65
2022-12-26T03:49:16.321Z,13.66
2022-12-26T03:52:10.969Z,13.64
2022-12-26T03:55:06.707Z,13.65
2022-12-26T03:57:59.267Z,13.65
2022-12-26T04:00:48.965Z,13.65
2022-12-26T04:03:37.115Z,13.64
2022-12-26T04:06:25.399Z,13.63
2022-12-26T04:09:17.907Z,13.62
2022-12-26T04:12:04.205Z,13.62
2022-12-26T04:15:24.826Z,13.61
2022-12-26T04:18:17.078Z,13.62
2022-12-26T04:21:06.183Z,13.59
2022-12-26T04:24:01.672Z,13.59
2022-12-26T04:27:19.504Z,13.56
2022-12-26T04:30:04.841Z,13.53
2022-12-26T04:33:03.904Z,13.50
2022-12-26T04:36:07.073Z,13.46
2022-12-26T04:38:59.027Z,13.44
2022-12-26T04:41:46.103Z,13.43
2022-12-26T04:44:14.124Z,13.43
2022-12-26T04:46:43.841Z,13.39
2022-12-26T04:49:31.648Z,13.36
2022-12-26T04:52:00.247Z,13.36
2022-12-26T04:54:27.538Z,13.34
2022-12-26T04:56:54.634Z,13.36
2022-12-26T04:59:22.474Z,13.34
2022-12-26T05:02:07.391Z,13.33
2022-12-26T05:04:52.785Z,13.31
2022-12-26T05:07:41.104Z,13.29
2022-12-26T05:10:17.878Z,13.27
2022-12-26T05:12:44.510Z,13.24
2022-12-26T05:15:11.756Z,13.24
2022-12-26T05:17:56.844Z,13.21
2022-12-26T05:20:38.437Z,13.21
2022-12-26T05:23:26.693Z,13.20
2022-12-26T05:26:11.539Z,13.17
2022-12-26T05:28:44.148Z,13.17
2022-12-26T05:31:15.866Z,13.16
2022-12-26T05:34:02.993Z,13.15
2022-12-26T05:36:33.999Z,13.16
2022-12-26T05:39:02.045Z,13.15
2022-12-26T05:41:28.736Z,13.14
2022-12-26T05:43:55.344Z,13.15
2022-12-26T05:46:21.856Z,13.14
2022-12-26T05:48:48.517Z,13.14
2022-12-26T05:51:15.058Z,13.14
2022-12-26T05:53:41.806Z,13.12
2022-12-26T05:56:12.741Z,13.09
2022-12-26T05:58:40.374Z,13.08
2022-12-26T06:01:11.616Z,13.07
2022-12-26T06:03:39.808Z,13.05
2022-12-26T06:06:07.267Z,13.06
2022-12-26T06:08:34.397Z,13.06
2022-12-26T06:11:08.903Z,13.03
2022-12-26T06:13:36.603Z,13.02
2022-12-26T06:16:07.795Z,13.01
2022-12-26T06:18:34.818Z,13.01
2022-12-26T06:21:06.465Z,12.96
2022-12-26T06:23:33.648Z,12.94
2022-12-26T06:26:00.138Z,12.93
2022-12-26T06:28:27.058Z,12.91
2022-12-26T06:30:53.638Z,12.91
2022-12-26T06:33:20.558Z,12.92
2022-12-26T06:35:47.113Z,12.93
2022-12-26T06:38:14.431Z,12.95
2022-12-26T06:40:42.266Z,12.94
2022-12-26T06:43:09.413Z,12.95
2022-12-26T06:45:36.164Z,12.97
2022-12-26T06:48:02.926Z,13.00
2022-12-26T06:50:29.539Z,12.99
2022-12-26T06:52:56.087Z,13.00
2022-12-26T06:55:22.616Z,13.01
2022-12-26T06:57:52.026Z,13.00
2022-12-26T07:00:18.781Z,13.02
2022-12-26T07:02:49.483Z,13.01
2022-12-26T07:05:16.299Z,13.01
2022-12-26T07:07:42.791Z,13.02
2022-12-26T07:10:09.813Z,13.00
2022-12-26T07:12:36.365Z,12.99
2022-12-26T07:15:02.973Z,12.98
2022-12-26T07:17:29.459Z,12.96
2022-12-26T07:19:55.980Z,12.95
2022-12-26T07:22:23.178Z,12.93
2022-12-26T07:24:49.747Z,12.92
2022-12-26T07:27:16.301Z,12.92
2022-12-26T07:29:42.830Z,12.91
2022-12-26T07:32:09.424Z,12.91
2022-12-26T07:34:36.094Z,12.91
2022-12-26T07:37:02.908Z,12.90
2022-12-26T07:39:29.432Z,12.89
2022-12-26T07:41:58.951Z,12.90
2022-12-26T07:44:27.171Z,12.88
2022-12-26T07:46:54.991Z,12.86
2022-12-26T07:49:22.390Z,12.87
2022-12-26T07:51:49.396Z,12.87
2022-12-26T07:54:16.012Z,12.85
2022-12-26T07:56:42.578Z,12.84
2022-12-26T07:59:17.451Z,12.82
2022-12-26T08:01:44.610Z,12.82
2022-12-26T08:04:13.025Z,12.80
2022-12-26T08:06:40.013Z,12.79
2022-12-26T08:09:07.807Z,12.80
2022-12-26T08:11:35.912Z,12.79
2022-12-26T08:14:02.835Z,12.80
2022-12-26T08:16:31.516Z,12.79
2022-12-26T08:18:58.333Z,12.79
2022-12-26T08:21:24.877Z,12.80
2022-12-26T08:23:51.413Z,12.80
2022-12-26T08:26:22.454Z,12.76
2022-12-26T08:28:51.287Z,12.75
2022-12-26T08:31:19.598Z,12.75
2022-12-26T08:33:46.229Z,12.76
2022-12-26T08:36:19.089Z,12.77
2022-12-26T08:38:45.896Z,12.80
2022-12-26T08:41:12.567Z,12.83
2022-12-26T08:44:25.209Z,12.83
2022-12-26T08:46:25.625Z,12.87
2022-12-26T08:48:52.344Z,12.94
2022-12-26T08:51:21.820Z,13.04
2022-12-26T08:53:52.031Z,13.13
2022-12-26T08:56:21.117Z,13.21
2022-12-26T08:58:48.054Z,13.29
2022-12-26T09:01:23.454Z,13.38
2022-12-26T09:03:56.865Z,13.46
2022-12-26T09:06:24.575Z,13.53
2022-12-26T09:08:51.433Z,13.53
2022-12-26T09:11:21.146Z,13.54
2022-12-26T09:13:47.925Z,13.60
2022-12-26T09:16:25.644Z,13.69
2022-12-26T09:18:58.634Z,13.77
2022-12-26T09:21:26.118Z,13.85
2022-12-26T09:24:04.563Z,13.89
2022-12-26T09:26:32.020Z,13.94
2022-12-26T09:28:59.100Z,13.98
2022-12-26T09:31:31.677Z,13.99
2022-12-26T09:33:58.861Z,14.02
2022-12-26T09:36:29.536Z,14.03
2022-12-26T09:38:57.410Z,14.04
2022-12-26T09:41:29.907Z,14.04
2022-12-26T09:44:15.984Z,14.07
2022-12-26T09:47:00.662Z,14.08
2022-12-26T09:49:38.477Z,14.09
2022-12-26T09:52:16.734Z,14.09
2022-12-26T09:54:51.039Z,14.08
2022-12-26T09:57:23.527Z,14.12
2022-12-26T10:00:04.499Z,14.12
2022-12-26T10:02:39.009Z,14.12
2022-12-26T10:05:06.541Z,14.12
2022-12-26T10:07:42.054Z,14.11
2022-12-26T10:10:29.674Z,14.11
2022-12-26T10:13:14.346Z,14.12
2022-12-26T10:15:46.884Z,14.11
2022-12-26T10:18:20.687Z,14.11
2022-12-26T10:21:02.863Z,14.12
2022-12-26T10:23:34.117Z,14.09
2022-12-26T10:26:11.562Z,14.09
2022-12-26T10:28:44.393Z,14.07
2022-12-26T10:31:21.394Z,14.08
2022-12-26T10:34:00.710Z,14.11
2022-12-26T10:36:39.269Z,14.14
2022-12-26T10:39:16.915Z,14.17
2022-12-26T10:41:50.063Z,14.19
2022-12-26T10:44:16.804Z,14.21
2022-12-26T10:46:52.032Z,14.19
2022-12-26T10:49:22.001Z,14.19
2022-12-26T10:51:50.466Z,14.13
2022-12-26T10:54:18.548Z,13.99
2022-12-26T10:56:47.981Z,13.87
2022-12-26T10:59:20.207Z,13.75
2022-12-26T11:01:47.693Z,13.65
2022-12-26T11:04:31.440Z,13.56
2022-12-26T11:07:11.578Z,13.47
2022-12-26T11:09:45.601Z,13.39
2022-12-26T11:12:25.791Z,13.30
2022-12-26T11:14:59.111Z,13.26
2022-12-26T11:17:42.650Z,13.23
2022-12-26T11:20:30.410Z,13.23
2022-12-26T11:23:21.907Z,13.22
2022-12-26T11:26:00.201Z,13.22
2022-12-26T11:28:36.670Z,13.23
2022-12-26T11:31:06.436Z,13.23
2022-12-26T11:33:51.202Z,13.24
2022-12-26T11:36:22.575Z,13.22
2022-12-26T11:39:02.658Z,13.21
2022-12-26T11:41:41.708Z,13.20
2022-12-26T11:44:11.651Z,13.16
2022-12-26T11:46:55.838Z,13.10
2022-12-26T11:49:36.219Z,13.00
2022-12-26T11:52:34.659Z,12.92
2022-12-26T11:55:01.626Z,12.88
2022-12-26T11:57:33.223Z,12.82
2022-12-26T12:00:16.699Z,12.79
2022-12-26T12:02:44.106Z,12.77
2022-12-26T12:05:44.923Z,12.74
2022-12-26T12:08:35.603Z,12.76
2022-12-26T12:11:13.183Z,12.75
2022-12-26T12:14:14.612Z,12.72
2022-12-26T12:17:02.479Z,12.75
2022-12-26T12:19:37.738Z,12.76
2022-12-26T12:22:28.942Z,12.75
2022-12-26T12:25:13.677Z,12.73
2022-12-26T12:27:49.586Z,12.73
2022-12-26T12:30:20.584Z,12.73
2022-12-26T12:33:25.558Z,12.70
2022-12-26T12:36:10.468Z,12.64
2022-12-26T12:39:11.009Z,12.59
2022-12-26T12:41:46.063Z,12.57
2022-12-26T12:44:21.214Z,12.56
2022-12-26T12:46:53.545Z,12.55
2022-12-26T12:49:38.513Z,12.56
2022-12-26T12:52:10.775Z,12.54
2022-12-26T12:55:15.100Z,12.49
2022-12-26T12:57:59.825Z,12.46
2022-12-26T13:00:33.559Z,12.40
2022-12-26T13:03:05.771Z,12.34
2022-12-26T13:05:32.434Z,12.28
2022-12-26T13:08:14.069Z,12.23
2022-12-26T13:11:06.528Z,12.19
2022-12-26T13:14:34.484Z,12.13
2022-12-26T13:17:06.541Z,12.16
2022-12-26T13:19:48.710Z,12.13
2022-12-26T13:22:26.044Z,12.12
2022-12-26T13:24:59.871Z,12.13
2022-12-26T13:27:31.405Z,12.13
2022-12-26T13:29:58.007Z,12.15
2022-12-26T13:32:30.473Z,12.14
2022-12-26T13:34:59.477Z,12.15
2022-12-26T13:37:38.026Z,12.14
2022-12-26T13:40:30.752Z,12.12
2022-12-26T13:43:19.872Z,12.10
2022-12-26T13:45:53.718Z,12.03
2022-12-26T13:48:26.342Z,12.00
2022-12-26T13:51:00.386Z,11.97
2022-12-26T13:53:38.422Z,11.97
2022-12-26T13:56:33.893Z,11.93
2022-12-26T13:59:30.252Z,11.91
2022-12-26T14:03:07.641Z,11.85
2022-12-26T14:05:40.045Z,11.81
2022-12-26T14:08:24.796Z,11.75
2022-12-26T14:11:10.080Z,11.74
2022-12-26T14:13:52.047Z,11.70
2022-12-26T14:16:43.501Z,11.66
2022-12-26T14:19:47.757Z,11.61
2022-12-26T14:22:26.327Z,11.61
2022-12-26T14:25:04.748Z,11.62
2022-12-26T14:27:43.030Z,11.61
2022-12-26T14:30:20.203Z,11.58
2022-12-26T14:33:01.956Z,11.55
2022-12-26T14:35:37.906Z,11.53
2022-12-26T14:38:38.537Z,11.49
2022-12-26T14:41:31.727Z,11.46
2022-12-26T14:44:10.435Z,11.42
2022-12-26T14:46:38.717Z,11.36
2022-12-26T14:49:19.074Z,11.28
2022-12-26T14:51:45.784Z,11.22
2022-12-26T14:54:21.997Z,11.14
2022-12-26T14:56:50.777Z,11.09
2022-12-26T14:59:31.299Z,11.03
2022-12-26T15:02:28.522Z,11.00
2022-12-26T15:05:10.972Z,10.93
2022-12-26T15:08:02.551Z,10.90
2022-12-26T15:10:50.861Z,10.83
2022-12-26T15:13:38.904Z,10.78
2022-12-26T15:16:17.618Z,10.75
2022-12-26T15:19:31.441Z,10.76
2022-12-26T15:22:00.599Z,10.78
2022-12-26T15:27:56.191Z,10.74
2022-12-26T15:30:43.913Z,10.70
2022-12-26T15:33:29.205Z,10.68
2022-12-26T15:36:21.645Z,10.65
2022-12-26T15:39:18.803Z,10.65
2022-12-26T15:41:55.684Z,10.68
2022-12-26T15:44:29.309Z,10.69
2022-12-26T15:47:02.803Z,10.70
2022-12-26T15:49:56.767Z,10.70
2022-12-26T15:52:23.190Z,10.68
2022-12-26T15:55:11.207Z,10.64
2022-12-26T15:57:48.155Z,10.57
2022-12-26T16:00:25.949Z,10.51
2022-12-26T16:03:29.981Z,10.46
2022-12-26T16:06:28.572Z,10.41
2022-12-26T16:09:27.400Z,10.34
2022-12-26T16:11:56.643Z,10.31
2022-12-26T16:14:25.945Z,10.27
2022-12-26T16:16:52.630Z,10.25
2022-12-26T16:19:27.191Z,10.21
2022-12-26T16:22:20.183Z,10.17
2022-12-26T16:24:48.240Z,10.12
2022-12-26T16:27:18.935Z,10.09
2022-12-26T16:30:11.225Z,10.03
2022-12-26T16:32:41.610Z,10.00
2022-12-26T16:35:24.109Z,9.93
2022-12-26T16:37:53.006Z,9.87
2022-12-26T16:40:28.953Z,9.81
2022-12-26T16:43:18.501Z,9.75
2022-12-26T16:45:48.769Z,9.70
2022-12-26T16:48:18.459Z,9.65
2022-12-26T16:50:57.104Z,9.60
2022-12-26T16:53:35.613Z,9.57
2022-12-26T16:56:27.210Z,9.51
2022-12-26T16:59:07.413Z,9.48
2022-12-26T17:01:34.827Z,9.44
2022-12-26T17:04:18.104Z,9.37
2022-12-26T17:06:53.168Z,9.32
2022-12-26T17:09:22.516Z,9.28
2022-12-26T17:11:59.571Z,9.21
2022-12-26T17:14:35.910Z,9.15
2022-12-26T17:17:08.903Z,9.09
2022-12-26T17:19:37.028Z,9.03
2022-12-26T17:22:17.753Z,8.97
2022-12-26T17:24:50.472Z,8.91
2022-12-26T17:27:25.299Z,8.87
2022-12-26T17:30:19.820Z,8.80
2022-12-26T17:32:47.890Z,8.78
2022-12-26T17:35:18.705Z,8.73
2022-12-26T17:37:46.807Z,8.72
2022-12-26T17:40:16.379Z,8.71
2022-12-26T17:42:55.009Z,8.70
2022-12-26T17:45:24.758Z,8.72
2022-12-26T17:47:53.277Z,8.71
2022-12-26T17:50:20.648Z,8.71
2022-12-26T17:52:47.772Z,8.67
2022-12-26T17:55:26.198Z,8.65
2022-12-26T17:57:53.646Z,8.65
2022-12-26T18:00:23.461Z,8.63
2022-12-26T18:02:50.179Z,8.61
2022-12-26T18:05:17.798Z,8.60
2022-12-26T18:07:46.155Z,8.61
2022-12-26T18:10:24.494Z,8.62
2022-12-26T18:12:52.258Z,8.60
2022-12-26T18:15:19.761Z,8.58
2022-12-26T18:17:48.448Z,8.57
2022-12-26T18:20:20.950Z,8.56
2022-12-26T18:22:47.771Z,8.56
2022-12-26T18:25:16.615Z,8.55
2022-12-26T18:27:43.823Z,8.51
2022-12-26T18:30:30.634Z,8.49
2022-12-26T18:32:57.104Z,8.49
2022-12-26T18:35:23.874Z,8.48
2022-12-26T18:37:52.565Z,8.49
2022-12-26T18:40:30.945Z,8.49
2022-12-26T18:42:57.908Z,8.49
2022-12-26T18:45:24.587Z,8.47
2022-12-26T18:47:51.380Z,8.47
2022-12-26T18:50:18.080Z,8.45
2022-12-26T18:52:48.635Z,8.43
2022-12-26T18:55:18.308Z,8.42
2022-12-26T18:57:45.027Z,8.40
2022-12-26T19:00:14.034Z,8.39
2022-12-26T19:02:40.925Z,8.33
2022-12-26T19:05:17.024Z,8.28
2022-12-26T19:07:44.079Z,8.25
2022-12-26T19:10:11.220Z,8.24
2022-12-26T19:12:37.838Z,8.21
2022-12-26T19:15:04.805Z,8.23
2022-12-26T19:17:31.326Z,8.22
2022-12-26T19:19:57.835Z,8.21
2022-12-26T19:22:24.616Z,8.20
2022-12-26T19:24:51.152Z,8.19
2022-12-26T19:27:17.675Z,8.20
2022-12-26T19:29:44.194Z,8.20
2022-12-26T19:32:10.922Z,8.19
2022-12-26T19:34:37.498Z,8.17
2022-12-26T19:37:04.050Z,8.14
2022-12-26T19:39:30.533Z,8.11
2022-12-26T19:41:57.041Z,8.09
2022-12-26T19:44:23.722Z,8.06
2022-12-26T19:46:50.232Z,8.05
2022-12-26T19:49:36.736Z,8.06
2022-12-26T19:52:03.740Z,8.06
2022-12-26T19:54:30.270Z,8.09
2022-12-26T19:56:56.742Z,8.08
2022-12-26T19:59:23.209Z,8.09
2022-12-26T20:01:49.808Z,8.10
2022-12-26T20:04:16.436Z,8.10
2022-12-26T20:06:42.981Z,8.14
2022-12-26T20:09:13.066Z,8.17
2022-12-26T20:11:49.620Z,8.19
2022-12-26T20:14:18.657Z,8.21
2022-12-26T20:17:05.095Z,8.19
2022-12-26T20:19:32.388Z,8.21
2022-12-26T20:21:58.991Z,8.21
2022-12-26T20:24:25.786Z,8.21
2022-12-26T20:26:52.357Z,8.20
2022-12-26T20:29:19.053Z,8.21
2022-12-26T20:31:46.039Z,8.21
2022-12-26T20:34:13.174Z,8.21
2022-12-26T20:36:40.387Z,8.20
2022-12-26T20:39:12.806Z,8.21
2022-12-26T20:41:39.415Z,8.22
2022-12-26T20:44:06.041Z,8.22
2022-12-26T20:46:34.266Z,8.23
2022-12-26T20:49:02.202Z,8.22
2022-12-26T20:51:36.410Z,8.20
2022-12-26T20:54:04.190Z,8.21
2022-12-26T20:56:30.859Z,8.19
2022-12-26T20:58:59.428Z,8.21
2022-12-26T21:01:27.468Z,8.19
2022-12-26T21:03:55.305Z,8.16
2022-12-26T21:06:25.007Z,8.13
2022-12-26T21:08:53.254Z,8.12
2022-12-26T21:11:27.631Z,8.10
2022-12-26T21:13:56.614Z,8.07
2022-12-26T21:16:50.693Z,8.06
2022-12-26T21:19:18.690Z,8.07
2022-12-26T21:21:47.510Z,8.04
2022-12-26T21:24:18.237Z,8.03
2022-12-26T21:26:45.090Z,8.02
2022-12-26T21:29:15.152Z,8.01
2022-12-26T21:31:42.831Z,8.00
2022-12-26T21:34:12.568Z,7.97
2022-12-26T21:36:39.511Z,7.94
2022-12-26T21:39:10.185Z,7.91
2022-12-26T21:41:37.815Z,7.90
2022-12-26T21:44:04.774Z,7.91
2022-12-26T21:46:31.694Z,7.89
2022-12-26T21:48:58.504Z,7.90
2022-12-26T21:51:25.979Z,7.89
2022-12-26T21:54:13.262Z,7.89
2022-12-26T21:56:39.920Z,7.89
2022-12-26T21:59:25.202Z,7.88
2022-12-26T22:01:51.866Z,7.88
2022-12-26T22:04:23.400Z,7.87
2022-12-26T22:06:50.688Z,7.86
2022-12-26T22:09:17.858Z,7.87
2022-12-26T22:12:04.359Z,7.87
2022-12-26T22:14:31.378Z,7.87
2022-12-26T22:16:58.330Z,7.85
2022-12-26T22:19:25.638Z,7.85
2022-12-26T22:21:53.452Z,7.84
2022-12-26T22:24:21.709Z,7.84
2022-12-26T22:26:48.724Z,7.84
2022-12-26T22:29:15.445Z,7.83
2022-12-26T22:31:42.145Z,7.83
2022-12-26T22:34:14.242Z,7.80
2022-12-26T22:36:41.900Z,7.77
2022-12-26T22:39:16.200Z,7.76
2022-12-26T22:41:43.419Z,7.76
2022-12-26T22:44:12.605Z,7.78
2022-12-26T22:46:39.850Z,7.79
2022-12-26T22:49:12.324Z,7.80
2022-12-26T22:51:39.361Z,7.80
2022-12-26T22:54:05.894Z,7.81
2022-12-26T22:56:33.275Z,7.81
2022-12-26T22:59:05.594Z,7.82
2022-12-26T23:01:32.240Z,7.82
2022-12-26T23:04:01.123Z,7.82
2022-12-26T23:06:33.962Z,7.83
2022-12-26T23:09:02.949Z,7.82
2022-12-26T23:11:35.130Z,7.82
2022-12-26T23:14:04.748Z,7.81
2022-12-26T23:16:47.523Z,7.81
2022-12-26T23:19:35.067Z,7.80
2022-12-26T23:22:02.738Z,7.80
2022-12-26T23:24:30.775Z,7.82
2022-12-26T23:27:19.320Z,7.82
2022-12-26T23:30:04.646Z,7.82
2022-12-26T23:32:31.864Z,7.82
2022-12-26T23:34:58.455Z,7.81
2022-12-26T23:37:25.315Z,7.80
2022-12-26T23:39:51.894Z,7.79
2022-12-26T23:42:18.581Z,7.80
2022-12-26T23:44:45.060Z,7.81
2022-12-26T23:47:11.601Z,7.81
2022-12-26T23:49:38.135Z,7.81
2022-12-26T23:52:04.929Z,7.82
2022-12-26T23:54:31.559Z,7.83
2022-12-26T23:56:58.492Z,7.80
2022-12-26T23:59:25.135Z,7.79
